sensor_id;sensor_type;location;lat;lon;timestamp;P1;durP1;ratioP1;P2;durP2;ratioP2
32788;SDS011;19141;48.980;8.410;2023-08-20T04:22:32;28.58;;;16.65;;
32788;SDS011;19141;48.980;8.410;2023-08-20T04:24:58;29.30;;;17.02;;
32788;SDS011;19141;48.980;8.410;2023-08-20T04:27:24;29.23;;;17.47;;
32788;SDS011;19141;48.980;8.410;2023-08-20T04:29:50;31.10;;;17.40;;
32788;SDS011;19141;48.980;8.410;2023-08-20T04:32:15;26.40;;;16.60;;
32788;SDS011;19141;48.980;8.410;2023-08-20T04:34:41;29.08;;;17.00;;
32788;SDS011;19141;48.980;8.410;2023-08-20T04:37:06;31.48;;;17.25;;
32788;SDS011;19141;48.980;8.410;2023-08-20T04:39:32;26.35;;;16.55;;
32788;SDS011;19141;48.980;8.410;2023-08-20T04:41:57;25.98;;;16.83;;
32788;SDS011;19141;48.980;8.410;2023-08-20T04:44:25;25.42;;;16.05;;
32788;SDS011;19141;48.980;8.410;2023-08-20T04:46:53;29.63;;;16.45;;
32788;SDS011;19141;48.980;8.410;2023-08-20T04:49:18;24.65;;;15.48;;
32788;SDS011;19141;48.980;8.410;2023-08-20T04:51:44;24.63;;;14.90;;
32788;SDS011;19141;48.980;8.410;2023-08-20T04:54:09;26.63;;;16.48;;
32788;SDS011;19141;48.980;8.410;2023-08-20T04:56:35;23.65;;;14.43;;
32788;SDS011;19141;48.980;8.410;2023-08-20T04:59:00;28.38;;;15.50;;
32788;SDS011;19141;48.980;8.410;2023-08-20T05:01:44;22.50;;;14.73;;
32788;SDS011;19141;48.980;8.410;2023-08-20T05:04:10;24.70;;;14.45;;
32788;SDS011;19141;48.980;8.410;2023-08-20T05:06:36;26.48;;;15.30;;
32788;SDS011;19141;48.980;8.410;2023-08-20T05:09:02;21.80;;;14.00;;
32788;SDS011;19141;48.980;8.410;2023-08-20T05:11:28;23.13;;;13.43;;
32788;SDS011;19141;48.980;8.410;2023-08-20T05:13:56;19.83;;;13.95;;
32788;SDS011;19141;48.980;8.410;2023-08-20T05:16:23;22.05;;;13.52;;
32788;SDS011;19141;48.980;8.410;2023-08-20T05:18:49;22.52;;;15.75;;
32788;SDS011;19141;48.980;8.410;2023-08-20T05:21:15;22.33;;;15.57;;
32788;SDS011;19141;48.980;8.410;2023-08-20T05:23:40;27.35;;;15.52;;
32788;SDS011;19141;48.980;8.410;2023-08-20T05:26:06;24.05;;;16.17;;
32788;SDS011;19141;48.980;8.410;2023-08-20T05:28:32;43.33;;;26.07;;
32788;SDS011;19141;48.980;8.410;2023-08-20T05:30:58;51.35;;;30.92;;
32788;SDS011;19141;48.980;8.410;2023-08-20T05:33:25;31.92;;;20.80;;
32788;SDS011;19141;48.980;8.410;2023-08-20T05:35:50;30.33;;;19.38;;
32788;SDS011;19141;48.980;8.410;2023-08-20T05:38:17;31.05;;;20.02;;
32788;SDS011;19141;48.980;8.410;2023-08-20T05:40:44;27.67;;;17.35;;
32788;SDS011;19141;48.980;8.410;2023-08-20T05:43:09;22.13;;;15.05;;
32788;SDS011;19141;48.980;8.410;2023-08-20T05:45:35;45.13;;;27.60;;
32788;SDS011;19141;48.980;8.410;2023-08-20T05:48:01;40.78;;;22.95;;
32788;SDS011;19141;48.980;8.410;2023-08-20T05:50:26;25.02;;;16.08;;
32788;SDS011;19141;48.980;8.410;2023-08-20T05:52:52;30.73;;;18.95;;
32788;SDS011;19141;48.980;8.410;2023-08-20T05:55:18;44.05;;;24.48;;
32788;SDS011;19141;48.980;8.410;2023-08-20T05:57:43;28.50;;;16.85;;
32788;SDS011;19141;48.980;8.410;2023-08-20T06:00:09;28.48;;;16.20;;
32788;SDS011;19141;48.980;8.410;2023-08-20T06:02:38;22.15;;;15.57;;
32788;SDS011;19141;48.980;8.410;2023-08-20T06:05:04;34.95;;;23.63;;
32788;SDS011;19141;48.980;8.410;2023-08-20T06:07:33;21.23;;;14.45;;
32788;SDS011;19141;48.980;8.410;2023-08-20T06:09:58;23.35;;;13.85;;
32788;SDS011;19141;48.980;8.410;2023-08-20T06:12:24;18.45;;;12.93;;
32788;SDS011;19141;48.980;8.410;2023-08-20T06:14:49;15.88;;;12.10;;
32788;SDS011;19141;48.980;8.410;2023-08-20T06:17:15;20.52;;;12.73;;
32788;SDS011;19141;48.980;8.410;2023-08-20T06:19:40;22.35;;;12.90;;
32788;SDS011;19141;48.980;8.410;2023-08-20T06:22:06;20.77;;;13.02;;
32788;SDS011;19141;48.980;8.410;2023-08-20T06:24:31;19.73;;;13.60;;
32788;SDS011;19141;48.980;8.410;2023-08-20T06:26:57;40.13;;;24.50;;
32788;SDS011;19141;48.980;8.410;2023-08-20T06:29:23;34.28;;;21.42;;
32788;SDS011;19141;48.980;8.410;2023-08-20T06:31:48;28.70;;;18.13;;
32788;SDS011;19141;48.980;8.410;2023-08-20T06:34:14;20.73;;;13.18;;
32788;SDS011;19141;48.980;8.410;2023-08-20T06:36:39;22.27;;;15.40;;
32788;SDS011;19141;48.980;8.410;2023-08-20T06:39:05;23.20;;;14.48;;
32788;SDS011;19141;48.980;8.410;2023-08-20T06:41:30;18.83;;;13.15;;
32788;SDS011;19141;48.980;8.410;2023-08-20T06:43:56;21.40;;;13.70;;
32788;SDS011;19141;48.980;8.410;2023-08-20T06:46:21;23.15;;;14.05;;
32788;SDS011;19141;48.980;8.410;2023-08-20T06:48:47;19.25;;;13.77;;
32788;SDS011;19141;48.980;8.410;2023-08-20T06:51:12;19.27;;;13.43;;
32788;SDS011;19141;48.980;8.410;2023-08-20T06:53:39;21.67;;;13.90;;
32788;SDS011;19141;48.980;8.410;2023-08-20T06:56:06;21.42;;;12.73;;
32788;SDS011;19141;48.980;8.410;2023-08-20T06:58:36;17.88;;;12.73;;
32788;SDS011;19141;48.980;8.410;2023-08-20T07:01:03;16.42;;;10.80;;
32788;SDS011;19141;48.980;8.410;2023-08-20T07:03:35;17.40;;;12.30;;
32788;SDS011;19141;48.980;8.410;2023-08-20T07:06:02;21.50;;;11.77;;
32788;SDS011;19141;48.980;8.410;2023-08-20T07:08:28;14.30;;;9.90;;
32788;SDS011;19141;48.980;8.410;2023-08-20T07:10:53;14.93;;;10.88;;
32788;SDS011;19141;48.980;8.410;2023-08-20T07:13:19;16.63;;;11.15;;
32788;SDS011;19141;48.980;8.410;2023-08-20T07:15:44;17.00;;;11.02;;
32788;SDS011;19141;48.980;8.410;2023-08-20T07:18:10;15.77;;;10.75;;
32788;SDS011;19141;48.980;8.410;2023-08-20T07:20:38;16.30;;;9.98;;
32788;SDS011;19141;48.980;8.410;2023-08-20T07:23:12;17.65;;;10.20;;
32788;SDS011;19141;48.980;8.410;2023-08-20T07:25:39;15.10;;;10.48;;
32788;SDS011;19141;48.980;8.410;2023-08-20T07:28:06;13.45;;;9.73;;
32788;SDS011;19141;48.980;8.410;2023-08-20T07:30:33;15.93;;;10.95;;
32788;SDS011;19141;48.980;8.410;2023-08-20T07:32:59;17.50;;;10.30;;
32788;SDS011;19141;48.980;8.410;2023-08-20T07:35:25;17.67;;;9.77;;
32788;SDS011;19141;48.980;8.410;2023-08-20T07:37:50;14.02;;;10.23;;
32788;SDS011;19141;48.980;8.410;2023-08-20T07:40:16;14.07;;;10.43;;
32788;SDS011;19141;48.980;8.410;2023-08-20T07:42:41;14.48;;;9.35;;
32788;SDS011;19141;48.980;8.410;2023-08-20T07:45:07;13.60;;;9.90;;
32788;SDS011;19141;48.980;8.410;2023-08-20T07:47:33;13.52;;;9.55;;
32788;SDS011;19141;48.980;8.410;2023-08-20T07:50:00;14.48;;;9.88;;
32788;SDS011;19141;48.980;8.410;2023-08-20T07:52:25;17.38;;;9.85;;
32788;SDS011;19141;48.980;8.410;2023-08-20T07:54:51;14.18;;;10.57;;
32788;SDS011;19141;48.980;8.410;2023-08-20T07:57:16;16.30;;;10.52;;
32788;SDS011;19141;48.980;8.410;2023-08-20T07:59:42;12.27;;;8.60;;
32788;SDS011;19141;48.980;8.410;2023-08-20T08:02:07;17.55;;;10.88;;
32788;SDS011;19141;48.980;8.410;2023-08-20T08:04:33;15.45;;;9.65;;
32788;SDS011;19141;48.980;8.410;2023-08-20T08:06:59;13.55;;;10.05;;
32788;SDS011;19141;48.980;8.410;2023-08-20T08:09:28;13.25;;;10.05;;
32788;SDS011;19141;48.980;8.410;2023-08-20T08:11:55;12.77;;;9.25;;
32788;SDS011;19141;48.980;8.410;2023-08-20T08:14:21;16.00;;;8.98;;
32788;SDS011;19141;48.980;8.410;2023-08-20T08:16:47;14.65;;;9.18;;
32788;SDS011;19141;48.980;8.410;2023-08-20T08:19:13;16.17;;;9.95;;
32788;SDS011;19141;48.980;8.410;2023-08-20T08:21:38;14.18;;;9.07;;
32788;SDS011;19141;48.980;8.410;2023-08-20T08:24:04;15.95;;;9.98;;
32788;SDS011;19141;48.980;8.410;2023-08-20T08:26:30;15.18;;;9.43;;
32788;SDS011;19141;48.980;8.410;2023-08-20T08:28:55;13.65;;;9.48;;
32788;SDS011;19141;48.980;8.410;2023-08-20T08:31:21;12.15;;;9.57;;
32788;SDS011;19141;48.980;8.410;2023-08-20T08:33:46;12.65;;;9.35;;
32788;SDS011;19141;48.980;8.410;2023-08-20T08:36:12;16.10;;;9.57;;
32788;SDS011;19141;48.980;8.410;2023-08-20T08:38:38;12.93;;;8.93;;
32788;SDS011;19141;48.980;8.410;2023-08-20T08:41:03;11.65;;;9.00;;
32788;SDS011;19141;48.980;8.410;2023-08-20T08:43:35;12.70;;;8.73;;
32788;SDS011;19141;48.980;8.410;2023-08-20T08:46:01;14.00;;;9.07;;
32788;SDS011;19141;48.980;8.410;2023-08-20T08:48:33;14.02;;;9.73;;
32788;SDS011;19141;48.980;8.410;2023-08-20T08:51:00;13.25;;;8.70;;
32788;SDS011;19141;48.980;8.410;2023-08-20T08:53:26;10.67;;;8.57;;
32788;SDS011;19141;48.980;8.410;2023-08-20T08:55:52;15.85;;;8.93;;
32788;SDS011;19141;48.980;8.410;2023-08-20T08:58:17;13.52;;;9.02;;
32788;SDS011;19141;48.980;8.410;2023-08-20T09:00:43;11.98;;;8.00;;
32788;SDS011;19141;48.980;8.410;2023-08-20T09:03:08;12.13;;;8.70;;
32788;SDS011;19141;48.980;8.410;2023-08-20T09:05:45;14.40;;;7.80;;
32788;SDS011;19141;48.980;8.410;2023-08-20T09:08:20;10.13;;;7.80;;
32788;SDS011;19141;48.980;8.410;2023-08-20T09:10:49;11.88;;;8.35;;
32788;SDS011;19141;48.980;8.410;2023-08-20T09:13:15;11.40;;;8.88;;
32788;SDS011;19141;48.980;8.410;2023-08-20T09:15:41;13.45;;;8.30;;
32788;SDS011;19141;48.980;8.410;2023-08-20T09:18:09;9.98;;;7.38;;
32788;SDS011;19141;48.980;8.410;2023-08-20T09:20:38;12.02;;;8.50;;
32788;SDS011;19141;48.980;8.410;2023-08-20T09:23:04;10.52;;;7.90;;
32788;SDS011;19141;48.980;8.410;2023-08-20T09:25:36;10.13;;;7.60;;
32788;SDS011;19141;48.980;8.410;2023-08-20T09:28:02;12.75;;;7.65;;
32788;SDS011;19141;48.980;8.410;2023-08-20T09:30:28;11.77;;;7.93;;
32788;SDS011;19141;48.980;8.410;2023-08-20T09:33:04;11.25;;;7.43;;
32788;SDS011;19141;48.980;8.410;2023-08-20T09:35:33;11.60;;;7.47;;
32788;SDS011;19141;48.980;8.410;2023-08-20T09:38:03;8.27;;;6.97;;
32788;SDS011;19141;48.980;8.410;2023-08-20T09:40:29;8.23;;;7.03;;
32788;SDS011;19141;48.980;8.410;2023-08-20T09:42:55;10.10;;;7.55;;
32788;SDS011;19141;48.980;8.410;2023-08-20T09:45:23;7.63;;;6.65;;
32788;SDS011;19141;48.980;8.410;2023-08-20T09:47:49;9.32;;;7.18;;
32788;SDS011;19141;48.980;8.410;2023-08-20T09:50:20;9.50;;;7.30;;
32788;SDS011;19141;48.980;8.410;2023-08-20T09:52:48;9.70;;;6.82;;
32788;SDS011;19141;48.980;8.410;2023-08-20T09:55:29;9.20;;;6.85;;
32788;SDS011;19141;48.980;8.410;2023-08-20T09:57:58;9.68;;;6.40;;
32788;SDS011;19141;48.980;8.410;2023-08-20T10:00:25;10.60;;;7.10;;
32788;SDS011;19141;48.980;8.410;2023-08-20T10:02:52;10.73;;;6.47;;
32788;SDS011;19141;48.980;8.410;2023-08-20T10:05:18;7.28;;;6.28;;
32788;SDS011;19141;48.980;8.410;2023-08-20T10:07:46;9.82;;;6.45;;
32788;SDS011;19141;48.980;8.410;2023-08-20T10:10:12;9.50;;;6.35;;
32788;SDS011;19141;48.980;8.410;2023-08-20T10:12:38;8.60;;;6.23;;
32788;SDS011;19141;48.980;8.410;2023-08-20T10:17:32;8.95;;;5.90;;
32788;SDS011;19141;48.980;8.410;2023-08-20T10:19:59;7.07;;;5.70;;
32788;SDS011;19141;48.980;8.410;2023-08-20T10:22:32;7.78;;;5.82;;
32788;SDS011;19141;48.980;8.410;2023-08-20T10:25:09;8.63;;;6.20;;
32788;SDS011;19141;48.980;8.410;2023-08-20T10:27:57;8.13;;;5.20;;
32788;SDS011;19141;48.980;8.410;2023-08-20T10:30:37;8.15;;;5.38;;
32788;SDS011;19141;48.980;8.410;2023-08-20T10:33:02;7.20;;;5.83;;
32788;SDS011;19141;48.980;8.410;2023-08-20T10:35:49;6.83;;;5.37;;
32788;SDS011;19141;48.980;8.410;2023-08-20T10:38:15;8.77;;;5.32;;
32788;SDS011;19141;48.980;8.410;2023-08-20T10:41:00;6.78;;;5.32;;
32788;SDS011;19141;48.980;8.410;2023-08-20T10:56:39;5.85;;;5.13;;
32788;SDS011;19141;48.980;8.410;2023-08-20T10:59:09;5.43;;;4.88;;
32788;SDS011;19141;48.980;8.410;2023-08-20T11:01:39;6.35;;;5.22;;
32788;SDS011;19141;48.980;8.410;2023-08-20T11:04:08;5.53;;;4.78;;
32788;SDS011;19141;48.980;8.410;2023-08-20T11:06:34;6.68;;;4.95;;
32788;SDS011;19141;48.980;8.410;2023-08-20T11:09:00;5.63;;;5.03;;
32788;SDS011;19141;48.980;8.410;2023-08-20T11:11:26;6.18;;;5.05;;
32788;SDS011;19141;48.980;8.410;2023-08-20T11:13:51;7.37;;;4.90;;
32788;SDS011;19141;48.980;8.410;2023-08-20T11:16:17;5.63;;;4.90;;
32788;SDS011;19141;48.980;8.410;2023-08-20T11:18:43;5.70;;;4.80;;
32788;SDS011;19141;48.980;8.410;2023-08-20T11:21:08;6.00;;;5.03;;
32788;SDS011;19141;48.980;8.410;2023-08-20T11:23:34;5.65;;;4.55;;
32788;SDS011;19141;48.980;8.410;2023-08-20T11:26:00;8.73;;;4.82;;
32788;SDS011;19141;48.980;8.410;2023-08-20T11:28:27;6.03;;;4.82;;
32788;SDS011;19141;48.980;8.410;2023-08-20T11:30:53;6.43;;;4.88;;
32788;SDS011;19141;48.980;8.410;2023-08-20T11:33:20;6.95;;;5.13;;
32788;SDS011;19141;48.980;8.410;2023-08-20T11:35:46;5.22;;;4.72;;
32788;SDS011;19141;48.980;8.410;2023-08-20T11:38:12;5.00;;;4.50;;
32788;SDS011;19141;48.980;8.410;2023-08-20T11:43:03;5.90;;;5.28;;
32788;SDS011;19141;48.980;8.410;2023-08-20T11:45:29;6.97;;;5.28;;
32788;SDS011;19141;48.980;8.410;2023-08-20T11:47:57;6.47;;;4.60;;
32788;SDS011;19141;48.980;8.410;2023-08-20T11:50:23;5.80;;;5.20;;
32788;SDS011;19141;48.980;8.410;2023-08-20T11:52:49;9.57;;;5.55;;
32788;SDS011;19141;48.980;8.410;2023-08-20T11:55:22;6.75;;;5.20;;
32788;SDS011;19141;48.980;8.410;2023-08-20T11:57:49;5.75;;;4.45;;
32788;SDS011;19141;48.980;8.410;2023-08-20T12:00:25;5.03;;;4.53;;
32788;SDS011;19141;48.980;8.410;2023-08-20T12:02:54;5.90;;;4.18;;
32788;SDS011;19141;48.980;8.410;2023-08-20T12:05:27;6.07;;;4.78;;
32788;SDS011;19141;48.980;8.410;2023-08-20T12:10:23;5.20;;;4.70;;
32788;SDS011;19141;48.980;8.410;2023-08-20T12:12:49;4.82;;;4.30;;
32788;SDS011;19141;48.980;8.410;2023-08-20T12:15:15;6.55;;;4.75;;
32788;SDS011;19141;48.980;8.410;2023-08-20T12:17:41;5.68;;;4.30;;
32788;SDS011;19141;48.980;8.410;2023-08-20T12:20:07;7.50;;;4.80;;
32788;SDS011;19141;48.980;8.410;2023-08-20T12:22:37;4.75;;;4.25;;
32788;SDS011;19141;48.980;8.410;2023-08-20T12:27:29;6.63;;;4.07;;
32788;SDS011;19141;48.980;8.410;2023-08-20T12:29:55;4.40;;;4.00;;
32788;SDS011;19141;48.980;8.410;2023-08-20T12:32:20;6.40;;;4.10;;
32788;SDS011;19141;48.980;8.410;2023-08-20T12:34:45;3.90;;;3.50;;
32788;SDS011;19141;48.980;8.410;2023-08-20T12:37:11;4.53;;;3.53;;
32788;SDS011;19141;48.980;8.410;2023-08-20T12:39:36;7.23;;;3.57;;
32788;SDS011;19141;48.980;8.410;2023-08-20T12:42:01;3.83;;;3.47;;
32788;SDS011;19141;48.980;8.410;2023-08-20T12:44:27;4.78;;;3.85;;
32788;SDS011;19141;48.980;8.410;2023-08-20T12:46:53;9.80;;;4.63;;
32788;SDS011;19141;48.980;8.410;2023-08-20T12:49:18;4.50;;;4.10;;
32788;SDS011;19141;48.980;8.410;2023-08-20T12:51:44;4.73;;;3.80;;
32788;SDS011;19141;48.980;8.410;2023-08-20T12:54:09;6.37;;;5.80;;
32788;SDS011;19141;48.980;8.410;2023-08-20T12:56:34;5.27;;;4.13;;
32788;SDS011;19141;48.980;8.410;2023-08-20T12:59:00;5.30;;;3.53;;
32788;SDS011;19141;48.980;8.410;2023-08-20T13:01:25;5.50;;;4.10;;
32788;SDS011;19141;48.980;8.410;2023-08-20T13:03:51;4.15;;;3.47;;
32788;SDS011;19141;48.980;8.410;2023-08-20T13:06:17;5.75;;;3.58;;
32788;SDS011;19141;48.980;8.410;2023-08-20T13:08:43;5.65;;;3.30;;
32788;SDS011;19141;48.980;8.410;2023-08-20T13:13:39;5.00;;;4.50;;
32788;SDS011;19141;48.980;8.410;2023-08-20T13:16:04;5.68;;;4.57;;
32788;SDS011;19141;48.980;8.410;2023-08-20T13:18:30;5.05;;;3.65;;
32788;SDS011;19141;48.980;8.410;2023-08-20T13:20:55;4.22;;;3.83;;
32788;SDS011;19141;48.980;8.410;2023-08-20T13:23:21;4.82;;;3.45;;
32788;SDS011;19141;48.980;8.410;2023-08-20T13:25:46;10.70;;;9.70;;
32788;SDS011;19141;48.980;8.410;2023-08-20T13:28:12;4.85;;;4.40;;
32788;SDS011;19141;48.980;8.410;2023-08-20T13:30:37;3.97;;;3.33;;
32788;SDS011;19141;48.980;8.410;2023-08-20T13:33:03;4.45;;;3.40;;
32788;SDS011;19141;48.980;8.410;2023-08-20T13:35:28;4.82;;;3.42;;
32788;SDS011;19141;48.980;8.410;2023-08-20T13:37:54;5.88;;;3.35;;
32788;SDS011;19141;48.980;8.410;2023-08-20T13:40:19;4.60;;;3.35;;
32788;SDS011;19141;48.980;8.410;2023-08-20T13:42:45;4.00;;;3.60;;
32788;SDS011;19141;48.980;8.410;2023-08-20T13:47:35;5.57;;;3.70;;
32788;SDS011;19141;48.980;8.410;2023-08-20T13:50:01;5.33;;;3.43;;
32788;SDS011;19141;48.980;8.410;2023-08-20T13:52:29;6.63;;;3.38;;
32788;SDS011;19141;48.980;8.410;2023-08-20T13:54:55;6.05;;;3.60;;
32788;SDS011;19141;48.980;8.410;2023-08-20T13:57:20;5.40;;;3.53;;
32788;SDS011;19141;48.980;8.410;2023-08-20T13:59:45;4.00;;;3.57;;
32788;SDS011;19141;48.980;8.410;2023-08-20T14:02:11;5.57;;;4.03;;
32788;SDS011;19141;48.980;8.410;2023-08-20T14:04:37;5.88;;;3.78;;
32788;SDS011;19141;48.980;8.410;2023-08-20T14:07:02;3.70;;;3.30;;
32788;SDS011;19141;48.980;8.410;2023-08-20T14:09:28;4.03;;;3.50;;
32788;SDS011;19141;48.980;8.410;2023-08-20T14:11:53;6.10;;;3.40;;
32788;SDS011;19141;48.980;8.410;2023-08-20T14:14:18;4.93;;;3.60;;
32788;SDS011;19141;48.980;8.410;2023-08-20T14:16:44;5.63;;;3.47;;
32788;SDS011;19141;48.980;8.410;2023-08-20T14:19:09;4.17;;;3.60;;
32788;SDS011;19141;48.980;8.410;2023-08-20T14:21:36;5.07;;;3.67;;
32788;SDS011;19141;48.980;8.410;2023-08-20T14:24:01;5.38;;;3.35;;
32788;SDS011;19141;48.980;8.410;2023-08-20T14:26:27;4.53;;;3.60;;
32788;SDS011;19141;48.980;8.410;2023-08-20T14:28:52;5.13;;;4.57;;
32788;SDS011;19141;48.980;8.410;2023-08-20T14:31:18;5.90;;;3.73;;
32788;SDS011;19141;48.980;8.410;2023-08-20T14:33:44;4.22;;;3.60;;
32788;SDS011;19141;48.980;8.410;2023-08-20T14:36:09;4.93;;;3.53;;
32788;SDS011;19141;48.980;8.410;2023-08-20T14:38:35;5.20;;;3.90;;
32788;SDS011;19141;48.980;8.410;2023-08-20T14:41:01;4.80;;;3.70;;
32788;SDS011;19141;48.980;8.410;2023-08-20T14:43:28;4.38;;;3.50;;
32788;SDS011;19141;48.980;8.410;2023-08-20T14:45:54;5.97;;;3.20;;
32788;SDS011;19141;48.980;8.410;2023-08-20T14:48:20;4.20;;;3.80;;
32788;SDS011;19141;48.980;8.410;2023-08-20T14:50:46;5.30;;;3.78;;
32788;SDS011;19141;48.980;8.410;2023-08-20T14:53:13;6.72;;;3.70;;
32788;SDS011;19141;48.980;8.410;2023-08-20T14:55:38;4.90;;;3.80;;
32788;SDS011;19141;48.980;8.410;2023-08-20T14:58:04;4.57;;;3.40;;
32788;SDS011;19141;48.980;8.410;2023-08-20T15:00:31;8.10;;;3.60;;
32788;SDS011;19141;48.980;8.410;2023-08-20T15:02:57;6.97;;;3.85;;
32788;SDS011;19141;48.980;8.410;2023-08-20T15:05:23;4.23;;;3.23;;
32788;SDS011;19141;48.980;8.410;2023-08-20T15:07:48;4.50;;;3.83;;
32788;SDS011;19141;48.980;8.410;2023-08-20T15:10:14;8.37;;;3.73;;
32788;SDS011;19141;48.980;8.410;2023-08-20T15:12:39;3.97;;;3.57;;
32788;SDS011;19141;48.980;8.410;2023-08-20T15:15:05;4.50;;;3.70;;
32788;SDS011;19141;48.980;8.410;2023-08-20T15:17:31;5.97;;;3.67;;
32788;SDS011;19141;48.980;8.410;2023-08-20T15:19:57;4.93;;;3.40;;
32788;SDS011;19141;48.980;8.410;2023-08-20T15:22:23;4.93;;;3.30;;
32788;SDS011;19141;48.980;8.410;2023-08-20T15:24:48;4.37;;;3.30;;
32788;SDS011;19141;48.980;8.410;2023-08-20T15:27:16;6.10;;;3.55;;
32788;SDS011;19141;48.980;8.410;2023-08-20T15:29:42;5.05;;;3.63;;
32788;SDS011;19141;48.980;8.410;2023-08-20T15:32:07;7.93;;;6.30;;
32788;SDS011;19141;48.980;8.410;2023-08-20T15:34:33;4.47;;;3.67;;
32788;SDS011;19141;48.980;8.410;2023-08-20T15:36:59;4.00;;;3.60;;
32788;SDS011;19141;48.980;8.410;2023-08-20T15:39:24;4.37;;;3.60;;
32788;SDS011;19141;48.980;8.410;2023-08-20T15:41:50;5.30;;;3.67;;
32788;SDS011;19141;48.980;8.410;2023-08-20T15:44:15;6.13;;;3.70;;
32788;SDS011;19141;48.980;8.410;2023-08-20T15:46:40;5.50;;;3.40;;
32788;SDS011;19141;48.980;8.410;2023-08-20T15:49:06;6.53;;;3.53;;
32788;SDS011;19141;48.980;8.410;2023-08-20T15:51:31;5.40;;;3.80;;
32788;SDS011;19141;48.980;8.410;2023-08-20T15:53:57;4.47;;;3.93;;
32788;SDS011;19141;48.980;8.410;2023-08-20T15:56:24;3.85;;;3.38;;
32788;SDS011;19141;48.980;8.410;2023-08-20T15:58:49;6.47;;;3.70;;
32788;SDS011;19141;48.980;8.410;2023-08-20T16:01:15;5.57;;;3.23;;
32788;SDS011;19141;48.980;8.410;2023-08-20T16:03:41;6.00;;;3.50;;
32788;SDS011;19141;48.980;8.410;2023-08-20T16:06:07;5.57;;;3.13;;
32788;SDS011;19141;48.980;8.410;2023-08-20T16:08:33;5.90;;;3.10;;
32788;SDS011;19141;48.980;8.410;2023-08-20T16:10:59;6.63;;;3.08;;
32788;SDS011;19141;48.980;8.410;2023-08-20T16:13:25;3.40;;;3.00;;
32788;SDS011;19141;48.980;8.410;2023-08-20T16:15:50;6.13;;;3.73;;
32788;SDS011;19141;48.980;8.410;2023-08-20T16:18:16;4.93;;;3.10;;
32788;SDS011;19141;48.980;8.410;2023-08-20T16:20:41;4.07;;;3.10;;
32788;SDS011;19141;48.980;8.410;2023-08-20T16:23:07;3.72;;;2.97;;
32788;SDS011;19141;48.980;8.410;2023-08-20T16:25:33;3.73;;;2.83;;
32788;SDS011;19141;48.980;8.410;2023-08-20T16:28:00;5.68;;;2.80;;
32788;SDS011;19141;48.980;8.410;2023-08-20T16:30:26;3.80;;;3.03;;
32788;SDS011;19141;48.980;8.410;2023-08-20T16:32:52;3.63;;;2.80;;
32788;SDS011;19141;48.980;8.410;2023-08-20T16:35:17;4.00;;;3.20;;
32788;SDS011;19141;48.980;8.410;2023-08-20T16:37:43;5.33;;;3.03;;
32788;SDS011;19141;48.980;8.410;2023-08-20T16:40:18;4.27;;;3.20;;
32788;SDS011;19141;48.980;8.410;2023-08-20T16:42:45;5.20;;;3.45;;
32788;SDS011;19141;48.980;8.410;2023-08-20T16:45:10;5.00;;;3.50;;
32788;SDS011;19141;48.980;8.410;2023-08-20T16:47:35;4.33;;;3.43;;
32788;SDS011;19141;48.980;8.410;2023-08-20T16:50:01;4.63;;;3.23;;
32788;SDS011;19141;48.980;8.410;2023-08-20T16:52:26;6.60;;;3.07;;
32788;SDS011;19141;48.980;8.410;2023-08-20T16:54:52;6.00;;;3.40;;
32788;SDS011;19141;48.980;8.410;2023-08-20T16:57:18;4.53;;;3.35;;
32788;SDS011;19141;48.980;8.410;2023-08-20T16:59:43;6.80;;;3.30;;
32788;SDS011;19141;48.980;8.410;2023-08-20T17:02:09;3.90;;;3.10;;
32788;SDS011;19141;48.980;8.410;2023-08-20T17:04:34;4.57;;;2.93;;
32788;SDS011;19141;48.980;8.410;2023-08-20T17:07:00;4.87;;;3.23;;
32788;SDS011;19141;48.980;8.410;2023-08-20T17:09:26;5.23;;;3.10;;
32788;SDS011;19141;48.980;8.410;2023-08-20T17:11:51;3.90;;;3.20;;
32788;SDS011;19141;48.980;8.410;2023-08-20T17:14:16;5.30;;;3.70;;
32788;SDS011;19141;48.980;8.410;2023-08-20T17:16:42;6.40;;;4.00;;
32788;SDS011;19141;48.980;8.410;2023-08-20T17:19:07;4.90;;;4.00;;
32788;SDS011;19141;48.980;8.410;2023-08-20T17:21:32;7.60;;;4.23;;
32788;SDS011;19141;48.980;8.410;2023-08-20T17:23:58;5.20;;;3.30;;
32788;SDS011;19141;48.980;8.410;2023-08-20T17:26:23;4.30;;;3.53;;
32788;SDS011;19141;48.980;8.410;2023-08-20T17:28:49;6.23;;;4.00;;
32788;SDS011;19141;48.980;8.410;2023-08-20T17:31:14;5.60;;;3.67;;
32788;SDS011;19141;48.980;8.410;2023-08-20T17:33:39;5.60;;;3.70;;
32788;SDS011;19141;48.980;8.410;2023-08-20T17:36:08;5.18;;;3.90;;
32788;SDS011;19141;48.980;8.410;2023-08-20T17:38:34;5.95;;;3.55;;
32788;SDS011;19141;48.980;8.410;2023-08-20T17:41:02;4.70;;;3.30;;
32788;SDS011;19141;48.980;8.410;2023-08-20T17:43:29;5.10;;;3.65;;
32788;SDS011;19141;48.980;8.410;2023-08-20T17:45:54;5.93;;;4.80;;
32788;SDS011;19141;48.980;8.410;2023-08-20T17:48:19;7.17;;;6.17;;
32788;SDS011;19141;48.980;8.410;2023-08-20T17:50:45;5.90;;;4.83;;
32788;SDS011;19141;48.980;8.410;2023-08-20T17:53:11;6.60;;;3.85;;
32788;SDS011;19141;48.980;8.410;2023-08-20T17:55:36;4.27;;;3.57;;
32788;SDS011;19141;48.980;8.410;2023-08-20T17:58:02;4.83;;;4.23;;
32788;SDS011;19141;48.980;8.410;2023-08-20T18:00:27;5.23;;;3.70;;
32788;SDS011;19141;48.980;8.410;2023-08-20T18:02:53;3.47;;;3.17;;
32788;SDS011;19141;48.980;8.410;2023-08-20T18:05:19;6.53;;;3.60;;
32788;SDS011;19141;48.980;8.410;2023-08-20T18:07:44;4.90;;;3.77;;
32788;SDS011;19141;48.980;8.410;2023-08-20T18:10:10;4.97;;;3.80;;
32788;SDS011;19141;48.980;8.410;2023-08-20T18:12:36;7.38;;;4.38;;
32788;SDS011;19141;48.980;8.410;2023-08-20T18:15:02;7.33;;;3.97;;
32788;SDS011;19141;48.980;8.410;2023-08-20T18:17:28;8.17;;;4.40;;
32788;SDS011;19141;48.980;8.410;2023-08-20T18:19:53;7.67;;;6.67;;
32788;SDS011;19141;48.980;8.410;2023-08-20T18:22:19;20.25;;;14.38;;
32788;SDS011;19141;48.980;8.410;2023-08-20T18:24:44;8.70;;;7.60;;
32788;SDS011;19141;48.980;8.410;2023-08-20T18:27:10;19.70;;;15.27;;
32788;SDS011;19141;48.980;8.410;2023-08-20T18:29:35;16.90;;;12.27;;
32788;SDS011;19141;48.980;8.410;2023-08-20T18:32:01;17.85;;;14.95;;
32788;SDS011;19141;48.980;8.410;2023-08-20T18:34:26;6.78;;;6.07;;
32788;SDS011;19141;48.980;8.410;2023-08-20T18:36:52;16.10;;;12.00;;
32788;SDS011;19141;48.980;8.410;2023-08-20T18:39:18;11.68;;;8.85;;
32788;SDS011;19141;48.980;8.410;2023-08-20T18:41:45;5.18;;;3.72;;
32788;SDS011;19141;48.980;8.410;2023-08-20T18:44:11;7.07;;;5.82;;
32788;SDS011;19141;48.980;8.410;2023-08-20T18:46:36;8.90;;;6.28;;
32788;SDS011;19141;48.980;8.410;2023-08-20T18:49:02;9.15;;;5.80;;
32788;SDS011;19141;48.980;8.410;2023-08-20T18:51:29;10.02;;;7.25;;
32788;SDS011;19141;48.980;8.410;2023-08-20T18:53:55;7.70;;;6.03;;
32788;SDS011;19141;48.980;8.410;2023-08-20T18:56:21;7.20;;;5.20;;
32788;SDS011;19141;48.980;8.410;2023-08-20T18:58:47;7.70;;;6.83;;
32788;SDS011;19141;48.980;8.410;2023-08-20T19:01:13;9.10;;;4.90;;
32788;SDS011;19141;48.980;8.410;2023-08-20T19:03:38;5.20;;;3.72;;
32788;SDS011;19141;48.980;8.410;2023-08-20T19:06:04;5.00;;;4.10;;
32788;SDS011;19141;48.980;8.410;2023-08-20T19:08:30;5.30;;;4.05;;
32788;SDS011;19141;48.980;8.410;2023-08-20T19:10:58;4.88;;;4.00;;
32788;SDS011;19141;48.980;8.410;2023-08-20T19:13:28;6.60;;;4.45;;
32788;SDS011;19141;48.980;8.410;2023-08-20T19:15:54;5.95;;;4.22;;
32788;SDS011;19141;48.980;8.410;2023-08-20T19:18:20;5.50;;;3.30;;
32788;SDS011;19141;48.980;8.410;2023-08-20T19:20:46;7.40;;;4.18;;
32788;SDS011;19141;48.980;8.410;2023-08-20T19:23:17;6.38;;;3.72;;